Terminal Aerodrome Forecast
Issued by NWS

Home | Current Version | Previous Version | Text Only | Print | Product List | Glossary Off
Versions: 1 2 3 4 5 6 7 8 9 10 11 12 13 14

002
FTUS43 KICT 010520
TAFSLN
TAF
KSLN 010520Z 0106/0206 28007KT P6SM SCT025 OVC050
     FM011000 28009KT P6SM OVC025
     FM011200 32013KT P6SM OVC015
     FM011700 34017G22KT P6SM OVC025=

USA.gov is the U.S. government's official web portal to all federal, state and local government web resources and services.